Pagrindinis puslapis
METAR-TAF:

METAR-TAF

Oro uostai :

Kangiqsujuaq, Kvebekas, Kanada

platuma: 61-35N, ilguma: 071-56W, Aukštis: 151 m

Dabartinis oras

Ataskaita buvo paskelbta 8 valandos ir 29 minutes, ne 22:00 UTC
Ramus vėjas
Temperatūra -22°C
Drėgmė 64%
Slėgis 1026 hPa
Matomumas: 24.1 km
Giedras dangus

METAR: CYKG 272200Z 00000KT 15SM SKC M22/M27 A3029 RMK SNW CVR/TR LOOSE/LAST STFD OBS/NXT OBS 281300 UTC SLP282

Laikas: 01:29 (06:29 UTC)

Prognozė

Ataskaita buvo paskelbta 15 valandos ir 51 minutes, ne 14:38 UTC
Prognozė galioja nuo 27 metu 15 UTC su 27 metu 22 UTC
Vėjas 8 kt iš Vakarų/Šiaurės Vakarų
Matomumas: 10 km
Mažai debesys ne aukštis 3000 ft
Mažai debesys ne aukštis 25000 ft

TAF: CYKG 271438Z 2715/2722 30008KT P6SM FEW030 FEW250 RMK NXT FCST WILL BE ISSUED AT 281445Z

Orai ataskaitas ir orų prognozės (METAR, TAF).

turimą stotys yra geltonos ir raudonos taškus žemėlapyje.

Perkelti pele per norėdami pamatyti stoties vardą.

Tada spustelėkite, norėdami matyti oro stebėjimo ir prognozės.

Norėdami pakeisti žemėlapį: spustelėkite ant žalios mygtukų su juodo kryžiaus žemyn,; žalią mygtuką su brūkšneliu, jei norite nutolinti; arba žalių rodyklių gretimoms žemėlapius.


METAR-TAF: